Time;durP1;ratioP1;P1;durP2;ratioP2;P2;SDS_P1;SDS_P2;PMS_P1;PMS_P2;Temp;Humidity;BMP_temperature;BMP_pressure;BME280_temperature;BME280_humidity;BME280_pressure;Samples;Min_cycle;Max_cycle;Signal;HPM_P1;HPM_P2
2021/01/28 00:00:10;;;;;;;15.30;5.45;;;5.30;96.80;;;;;;5025547;28;20113;-77
2021/01/28 00:02:41;;;;;;;12.73;5.35;;;5.30;96.80;;;;;;5022121;28;20037;-78
2021/01/28 00:05:08;;;;;;;9.27;3.50;;;5.30;96.80;;;;;;5023751;28;20076;-78
2021/01/28 00:07:33;;;;;;;12.52;4.28;;;5.30;96.80;;;;;;5026060;28;20042;-77
2021/01/28 00:10:00;;;;;;;12.80;4.50;;;5.30;96.80;;;;;;5024320;28;20455;-78
2021/01/28 00:12:26;;;;;;;12.73;4.88;;;5.30;96.80;;;;;;5022000;28;20058;-78
2021/01/28 00:14:52;;;;;;;12.60;4.22;;;5.30;96.80;;;;;;5013257;28;20121;-78
2021/01/28 00:17:17;;;;;;;11.45;3.78;;;5.30;96.80;;;;;;5014018;28;20411;-78
2021/01/28 00:19:43;;;;;;;14.02;4.38;;;5.30;96.80;;;;;;5013623;28;20112;-78
2021/01/28 00:22:09;;;;;;;13.52;4.60;;;5.30;96.80;;;;;;5019935;28;20041;-77
2021/01/28 00:24:36;;;;;;;17.15;4.88;;;5.30;96.80;;;;;;5025029;28;20425;-77
2021/01/28 00:27:02;;;;;;;10.32;3.75;;;5.20;97.00;;;;;;5020471;28;20049;-78
2021/01/28 00:29:27;;;;;;;14.20;3.00;;;5.20;96.80;;;;;;5025573;28;20112;-78
2021/01/28 00:31:54;;;;;;;17.48;5.40;;;5.20;96.80;;;;;;5024234;28;20129;-78
2021/01/28 00:34:21;;;;;;;14.27;4.20;;;5.20;96.80;;;;;;5020045;28;20042;-78
2021/01/28 00:36:46;;;;;;;8.73;4.18;;;5.20;96.80;;;;;;5019479;28;20046;-77
2021/01/28 00:39:13;;;;;;;12.13;4.40;;;5.20;96.80;;;;;;5023804;28;20037;-78
2021/01/28 00:41:39;;;;;;;12.05;4.15;;;5.20;96.80;;;;;;5027240;28;20038;-77
2021/01/28 00:44:04;;;;;;;8.15;3.45;;;5.20;96.70;;;;;;5025267;28;20044;-77
2021/01/28 00:46:30;;;;;;;13.45;3.92;;;5.20;96.80;;;;;;5023845;28;20045;-78
2021/01/28 00:48:56;;;;;;;9.15;4.10;;;5.20;96.70;;;;;;5023375;28;20037;-77
2021/01/28 00:51:21;;;;;;;11.32;4.00;;;5.20;96.70;;;;;;5027639;28;20094;-78
2021/01/28 00:53:47;;;;;;;7.72;4.55;;;5.20;96.70;;;;;;5016507;28;20411;-78
2021/01/28 00:56:13;;;;;;;8.73;4.65;;;5.10;96.70;;;;;;5026200;28;20471;-78
2021/01/28 00:58:39;;;;;;;9.85;3.95;;;5.10;96.70;;;;;;5025381;28;20516;-77
2021/01/28 01:01:05;;;;;;;7.65;4.38;;;5.20;96.80;;;;;;5020239;28;20047;-77
2021/01/28 01:03:31;;;;;;;8.45;3.80;;;5.10;96.70;;;;;;5023645;28;20045;-78
2021/01/28 01:05:57;;;;;;;11.13;3.50;;;5.20;96.70;;;;;;5028099;28;20095;-77
2021/01/28 01:08:30;;;;;;;6.60;3.28;;;5.10;96.60;;;;;;5021489;28;20373;-78
2021/01/28 01:10:58;;;;;;;6.97;3.33;;;5.10;96.60;;;;;;5025204;28;20603;-77
2021/01/28 01:13:29;;;;;;;8.02;3.53;;;5.10;96.80;;;;;;5022697;28;20368;-77
2021/01/28 01:15:55;;;;;;;7.82;3.58;;;5.00;96.50;;;;;;5020407;28;20049;-77
2021/01/28 01:18:26;;;;;;;5.78;2.80;;;5.00;96.50;;;;;;5022481;28;20428;-78
2021/01/28 01:20:52;;;;;;;8.75;3.30;;;5.00;96.50;;;;;;5024563;28;20085;-77
2021/01/28 01:23:18;;;;;;;8.38;3.10;;;5.00;96.50;;;;;;5025993;28;20052;-77
2021/01/28 01:25:45;;;;;;;6.85;3.10;;;5.00;96.50;;;;;;5024978;28;20061;-78
2021/01/28 01:28:10;;;;;;;9.50;3.30;;;4.90;96.40;;;;;;5028574;28;20464;-77
2021/01/28 01:30:37;;;;;;;7.05;2.33;;;4.90;96.40;;;;;;5024804;28;20069;-78
2021/01/28 01:33:03;;;;;;;6.60;3.80;;;4.90;96.40;;;;;;5026859;28;20425;-77
2021/01/28 01:35:30;;;;;;;5.95;3.30;;;4.90;96.40;;;;;;5022738;28;20044;-79
2021/01/28 01:37:57;;;;;;;7.60;3.40;;;4.90;96.40;;;;;;5024694;28;20041;-77
2021/01/28 01:40:30;;;;;;;12.40;4.03;;;4.90;96.40;;;;;;5022741;28;20418;-77
2021/01/28 01:42:56;;;;;;;10.10;3.80;;;4.80;96.40;;;;;;5024320;28;20029;-77
2021/01/28 01:45:47;;;;;;;9.77;3.65;;;4.80;96.40;;;;;;5022626;28;20651;-78
2021/01/28 01:48:26;;;;;;;7.95;4.32;;;4.80;96.40;;;;;;5022092;28;20045;-77
2021/01/28 01:51:03;;;;;;;9.50;4.22;;;4.80;96.50;;;;;;5023159;28;20087;-77
2021/01/28 01:53:35;;;;;;;8.85;4.00;;;4.70;96.50;;;;;;5022380;28;20421;-77
2021/01/28 01:56:07;;;;;;;13.98;5.40;;;4.80;96.50;;;;;;5024906;28;20036;-77
2021/01/28 01:59:00;;;;;;;13.00;4.28;;;4.70;96.50;;;;;;5024280;28;20034;-78
2021/01/28 02:01:28;;;;;;;10.55;3.42;;;4.70;96.50;;;;;;5021698;28;20399;-78
2021/01/28 02:03:54;;;;;;;16.58;3.53;;;4.60;96.50;;;;;;5024434;28;20087;-77
2021/01/28 02:06:43;;;;;;;44.85;5.05;;;4.60;96.40;;;;;;5026144;28;20040;-78
2021/01/28 02:09:10;;;;;;;18.92;3.70;;;4.60;96.50;;;;;;5020671;28;20038;-78
2021/01/28 02:11:37;;;;;;;31.48;3.85;;;4.50;96.50;;;;;;5024689;28;20038;-77
2021/01/28 02:14:05;;;;;;;13.20;4.45;;;4.50;96.40;;;;;;5023031;28;20501;-77
2021/01/28 02:16:35;;;;;;;5.95;3.38;;;4.50;96.50;;;;;;5023477;28;20046;-78
2021/01/28 02:19:06;;;;;;;9.75;3.92;;;4.50;96.50;;;;;;5024071;28;20041;-77
2021/01/28 02:21:36;;;;;;;19.73;3.83;;;4.50;96.50;;;;;;5022748;28;20099;-77
2021/01/28 02:24:14;;;;;;;14.48;3.75;;;4.50;96.40;;;;;;5021219;28;20450;-78
2021/01/28 02:26:48;;;;;;;14.32;3.80;;;4.50;96.60;;;;;;5019812;28;20447;-77
2021/01/28 02:29:15;;;;;;;57.10;5.32;;;4.40;96.50;;;;;;5019839;28;20065;-77
2021/01/28 02:31:45;;;;;;;118.32;8.18;;;4.40;96.50;;;;;;5018493;28;20135;-77
2021/01/28 02:34:11;;;;;;;42.00;3.92;;;4.40;96.60;;;;;;5025198;28;20046;-78
2021/01/28 02:36:46;;;;;;;45.10;4.68;;;4.40;96.70;;;;;;5020791;28;20058;-77
2021/01/28 02:39:14;;;;;;;21.58;3.88;;;4.40;96.80;;;;;;5022977;28;20444;-77
2021/01/28 02:41:42;;;;;;;78.50;4.40;;;4.50;96.90;;;;;;5023445;28;20487;-77
2021/01/28 02:44:08;;;;;;;76.38;4.32;;;4.50;96.80;;;;;;5024134;28;20037;-77
2021/01/28 02:46:35;;;;;;;58.83;5.30;;;4.50;96.70;;;;;;5023148;28;20037;-77
2021/01/28 02:49:00;;;;;;;90.07;5.53;;;4.50;96.70;;;;;;5023959;28;20127;-77
2021/01/28 02:51:26;;;;;;;94.55;6.43;;;4.50;96.70;;;;;;5021263;28;20124;-78
2021/01/28 02:53:53;;;;;;;87.38;5.47;;;4.50;96.70;;;;;;5022432;28;20066;-77
2021/01/28 02:56:24;;;;;;;93.90;5.22;;;4.40;96.70;;;;;;5022733;28;20077;-78
2021/01/28 02:58:51;;;;;;;42.70;3.92;;;4.40;96.70;;;;;;5029059;28;20053;-78
2021/01/28 03:01:18;;;;;;;69.47;4.93;;;4.40;96.80;;;;;;5027746;28;20076;-77
2021/01/28 03:03:44;;;;;;;79.85;4.38;;;4.40;96.80;;;;;;5029579;28;20049;-77
2021/01/28 03:06:11;;;;;;;87.38;5.45;;;4.40;96.70;;;;;;5026886;28;20080;-77
2021/01/28 03:08:36;;;;;;;113.68;6.00;;;4.40;96.70;;;;;;5029612;28;20125;-77
2021/01/28 03:11:03;;;;;;;99.13;5.68;;;4.40;96.70;;;;;;5023968;28;20116;-77
2021/01/28 03:13:29;;;;;;;145.77;6.28;;;4.40;96.70;;;;;;5030527;28;20385;-77
2021/01/28 03:15:56;;;;;;;280.75;12.57;;;4.40;96.80;;;;;;5023123;28;20453;-77
2021/01/28 03:18:23;;;;;;;107.55;6.90;;;4.40;96.80;;;;;;5022587;28;20042;-77
2021/01/28 03:20:49;;;;;;;181.43;7.65;;;4.40;96.70;;;;;;5026393;28;20041;-77
2021/01/28 03:23:15;;;;;;;160.00;6.72;;;4.30;96.60;;;;;;5024460;28;20499;-77
2021/01/28 03:25:41;;;;;;;65.03;5.10;;;4.30;96.70;;;;;;5024293;28;20582;-77
2021/01/28 03:28:08;;;;;;;99.38;5.63;;;4.20;96.70;;;;;;5028106;28;20037;-77
2021/01/28 03:30:41;;;;;;;138.77;6.22;;;4.20;96.80;;;;;;5020112;28;20040;-77
2021/01/28 03:33:08;;;;;;;191.30;9.10;;;4.20;96.80;;;;;;5022100;28;20033;-77
2021/01/28 03:35:35;;;;;;;156.45;7.07;;;4.20;96.80;;;;;;5027726;28;20037;-78
2021/01/28 03:38:02;;;;;;;86.85;5.80;;;4.20;97.00;;;;;;5034084;28;20117;-77
2021/01/28 03:40:30;;;;;;;152.85;7.53;;;4.30;97.10;;;;;;5026050;28;20054;-77
2021/01/28 03:42:56;;;;;;;255.27;11.43;;;4.20;97.00;;;;;;5026853;28;20130;-78
2021/01/28 03:45:22;;;;;;;194.13;9.32;;;4.20;97.00;;;;;;5025948;28;20487;-77
2021/01/28 03:47:48;;;;;;;252.75;12.82;;;4.20;97.00;;;;;;5024774;28;20052;-78
2021/01/28 03:50:17;;;;;;;195.02;9.43;;;4.10;97.00;;;;;;5023999;28;20483;-77
2021/01/28 03:52:42;;;;;;;204.75;10.85;;;4.10;97.10;;;;;;5023914;28;20034;-77
2021/01/28 03:55:09;;;;;;;173.75;9.90;;;4.10;97.20;;;;;;5018777;28;20641;-77
2021/01/28 03:57:35;;;;;;;58.25;6.25;;;4.10;97.30;;;;;;5023419;28;20590;-77
2021/01/28 04:00:01;;;;;;;139.75;7.63;;;4.10;97.30;;;;;;5022705;28;20092;-78
2021/01/28 04:02:26;;;;;;;130.55;7.13;;;4.10;97.40;;;;;;5023544;28;20376;-77
2021/01/28 04:04:52;;;;;;;80.90;6.43;;;4.10;97.50;;;;;;5025703;28;20041;-77
2021/01/28 04:07:18;;;;;;;113.30;5.38;;;4.10;97.40;;;;;;5023916;28;20033;-77
2021/01/28 04:09:43;;;;;;;82.18;5.75;;;4.20;97.50;;;;;;5024070;28;20040;-77
2021/01/28 04:12:09;;;;;;;95.15;7.93;;;4.20;97.40;;;;;;5025368;28;20069;-77
2021/01/28 04:14:35;;;;;;;69.38;4.60;;;4.20;97.40;;;;;;5023715;28;20038;-77
2021/01/28 04:17:02;;;;;;;60.33;5.03;;;4.20;97.30;;;;;;5026188;28;20034;-77
2021/01/28 04:19:27;;;;;;;77.25;5.55;;;4.20;97.30;;;;;;5024365;28;20377;-77
2021/01/28 04:21:53;;;;;;;86.72;6.20;;;4.20;97.30;;;;;;5026411;28;20080;-77
2021/01/28 04:24:19;;;;;;;50.45;5.38;;;4.20;97.30;;;;;;5026097;28;20033;-77
2021/01/28 04:26:45;;;;;;;55.47;4.85;;;4.20;97.30;;;;;;5030035;28;20034;-77
2021/01/28 04:29:11;;;;;;;49.83;4.80;;;4.20;97.30;;;;;;5023765;28;20056;-77
2021/01/28 04:31:37;;;;;;;74.47;5.15;;;4.20;97.30;;;;;;5023652;28;20033;-78
2021/01/28 04:34:03;;;;;;;102.20;7.07;;;4.20;97.30;;;;;;5023061;28;20091;-78
2021/01/28 04:36:29;;;;;;;47.08;5.00;;;4.20;97.30;;;;;;5022793;28;20056;-78
2021/01/28 04:38:55;;;;;;;68.43;4.55;;;4.20;97.30;;;;;;5031570;28;20034;-77
2021/01/28 04:41:24;;;;;;;88.20;7.53;;;4.20;97.30;;;;;;5027411;28;20089;-78
2021/01/28 04:43:52;;;;;;;49.92;4.78;;;4.20;97.30;;;;;;5025442;28;20045;-78
2021/01/28 04:46:23;;;;;;;67.22;4.70;;;4.20;97.30;;;;;;5025382;28;20037;-78
2021/01/28 04:48:49;;;;;;;67.50;6.10;;;4.20;97.20;;;;;;5023019;28;20127;-77
2021/01/28 04:51:15;;;;;;;97.60;6.80;;;4.20;97.20;;;;;;5031075;28;20025;-77
2021/01/28 04:53:48;;;;;;;160.50;8.57;;;4.20;97.20;;;;;;5025808;28;20038;-77
2021/01/28 04:56:21;;;;;;;148.18;8.90;;;4.20;97.20;;;;;;5024231;28;20045;-77
2021/01/28 04:58:47;;;;;;;173.00;9.93;;;4.10;97.30;;;;;;5019120;28;20160;-77
2021/01/28 05:01:13;;;;;;;175.88;9.38;;;4.10;97.30;;;;;;5022481;28;20065;-77
2021/01/28 05:03:46;;;;;;;192.25;10.63;;;4.10;97.30;;;;;;5025513;28;20068;-77
2021/01/28 05:06:12;;;;;;;171.20;9.90;;;4.00;97.40;;;;;;5026419;28;20045;-77
2021/01/28 05:08:38;;;;;;;216.73;12.35;;;3.90;97.40;;;;;;5026783;28;20033;-77
2021/01/28 05:11:23;;;;;;;334.05;21.73;;;3.90;97.50;;;;;;5018576;28;20170;-77
2021/01/28 05:13:49;;;;;;;262.13;16.88;;;3.80;97.50;;;;;;5024878;28;20044;-77
2021/01/28 05:16:22;;;;;;;146.43;13.60;;;3.80;97.50;;;;;;5023087;28;20476;-77
2021/01/28 05:19:04;;;;;;;131.30;11.93;;;3.90;97.60;;;;;;5020056;28;20387;-77
2021/01/28 05:21:46;;;;;;;156.07;12.52;;;3.80;97.70;;;;;;5024794;28;20420;-77
2021/01/28 05:24:35;;;;;;;130.25;9.77;;;3.80;97.80;;;;;;5022880;28;20037;-77
2021/01/28 05:27:25;;;;;;;139.90;11.70;;;3.90;97.90;;;;;;5022027;28;20042;-77
2021/01/28 05:29:54;;;;;;;116.05;10.98;;;3.90;97.90;;;;;;5025139;28;20172;-77
2021/01/28 05:32:43;;;;;;;170.05;12.25;;;3.80;97.90;;;;;;5022604;28;20060;-77
2021/01/28 05:35:30;;;;;;;256.88;17.00;;;3.80;98.00;;;;;;5023204;28;20041;-77
2021/01/28 05:38:05;;;;;;;280.00;18.20;;;3.80;98.10;;;;;;5023770;28;20041;-77
2021/01/28 05:40:31;;;;;;;181.52;15.60;;;3.70;98.20;;;;;;5025015;28;20671;-77
2021/01/28 05:42:57;;;;;;;152.80;12.43;;;3.80;98.20;;;;;;5024778;28;20057;-78
2021/01/28 05:45:23;;;;;;;146.20;12.45;;;3.70;98.20;;;;;;5025814;28;20029;-77
2021/01/28 05:47:51;;;;;;;150.50;15.30;;;3.70;98.30;;;;;;5020788;28;20053;-77
2021/01/28 05:50:21;;;;;;;140.45;12.32;;;3.70;98.40;;;;;;5021550;28;20476;-77
2021/01/28 05:52:47;;;;;;;184.15;14.77;;;3.60;98.40;;;;;;5025520;28;20050;-77
2021/01/28 05:55:17;;;;;;;142.35;13.85;;;3.70;98.50;;;;;;5023146;28;20466;-77
2021/01/28 05:57:53;;;;;;;133.45;12.00;;;3.60;98.40;;;;;;5026114;28;20045;-77
2021/01/28 06:00:31;;;;;;;103.85;12.27;;;3.60;98.50;;;;;;5023907;28;20032;-77
2021/01/28 06:03:35;;;;;;;89.43;10.38;;;3.60;98.50;;;;;;5021661;28;20369;-77
2021/01/28 06:06:00;;;;;;;128.93;13.77;;;3.60;98.60;;;;;;5024687;28;20091;-77
2021/01/28 06:08:53;;;;;;;123.88;12.23;;;3.60;98.50;;;;;;5022798;28;20108;-78
2021/01/28 06:11:57;;;;;;;151.68;14.50;;;3.60;98.60;;;;;;5025461;28;20041;-77
2021/01/28 06:14:22;;;;;;;168.18;14.50;;;3.60;98.50;;;;;;5025562;28;20045;-77
2021/01/28 06:16:48;;;;;;;177.25;16.08;;;3.50;98.50;;;;;;5027087;28;20034;-77
2021/01/28 06:19:42;;;;;;;153.23;16.40;;;3.60;98.50;;;;;;5023573;28;20436;-77
2021/01/28 06:22:23;;;;;;;154.73;15.45;;;3.50;98.50;;;;;;5019420;28;20038;-77
2021/01/28 06:25:13;;;;;;;239.43;19.55;;;3.60;98.60;;;;;;5021865;28;20041;-77
2021/01/28 06:28:08;;;;;;;113.70;12.20;;;3.60;98.70;;;;;;5029893;28;20049;-77
2021/01/28 06:31:03;;;;;;;143.27;15.30;;;3.50;98.60;;;;;;5007388;28;20046;-77
2021/01/28 06:33:41;;;;;;;168.20;16.75;;;3.50;98.70;;;;;;5007154;28;20049;-77
2021/01/28 06:36:22;;;;;;;156.32;15.43;;;3.50;98.70;;;;;;5021800;28;20041;-77
2021/01/28 06:38:53;;;;;;;130.18;14.15;;;3.50;98.70;;;;;;5025936;28;20037;-77
2021/01/28 06:41:23;;;;;;;159.45;17.35;;;3.50;98.70;;;;;;5031461;28;20537;-77
2021/01/28 06:43:57;;;;;;;122.25;13.68;;;3.50;98.80;;;;;;5025967;28;20041;-77
2021/01/28 06:46:54;;;;;;;108.85;13.23;;;3.50;98.80;;;;;;5027208;28;20511;-77
2021/01/28 06:49:25;;;;;;;;;;;3.40;98.70;;;;;;5024115;28;20042;-77
2021/01/28 06:52:04;;;;;;;51.20;10.00;;;3.40;98.80;;;;;;5024606;28;19921;-77
2021/01/28 06:58:03;;;;;;;38.55;10.80;;;3.40;98.80;;;;;;5024103;28;20049;-77
2021/01/28 07:00:41;;;;;;;46.13;12.07;;;3.40;98.80;;;;;;5026953;28;20037;-77
2021/01/28 07:03:09;;;;;;;23.17;10.07;;;3.40;98.90;;;;;;5023110;28;20458;-77
2021/01/28 07:06:02;;;;;;;37.92;12.60;;;3.40;98.90;;;;;;5025881;28;20059;-77
2021/01/28 07:08:37;;;;;;;31.05;11.10;;;3.40;98.90;;;;;;5025540;28;20503;-77
2021/01/28 07:11:03;;;;;;;24.17;10.57;;;3.40;98.80;;;;;;5028322;28;20041;-77
2021/01/28 07:13:33;;;;;;;23.60;10.50;;;3.40;99.10;;;;;;5029789;28;20713;-77
2021/01/28 07:16:13;;;;;;;35.40;12.63;;;3.50;98.90;;;;;;5024208;28;20026;-77
2021/01/28 07:18:49;;;;;;;27.58;12.13;;;3.50;98.80;;;;;;5023851;28;20035;-77
2021/01/28 07:21:29;;;;;;;32.63;10.00;;;3.50;98.80;;;;;;5019532;28;20037;-77
2021/01/28 07:24:11;;;;;;;22.40;9.90;;;3.50;98.80;;;;;;5017932;28;20029;-77
2021/01/28 07:26:50;;;;;;;32.05;12.35;;;3.50;98.70;;;;;;5016122;28;20075;-76
2021/01/28 07:29:48;;;;;;;25.35;10.88;;;3.50;98.80;;;;;;5018533;28;20044;-77
2021/01/28 07:32:19;;;;;;;27.27;12.15;;;3.60;98.80;;;;;;5017895;28;20176;-77
2021/01/28 07:35:24;;;;;;;47.03;13.93;;;3.60;98.80;;;;;;5017893;28;20833;-77
2021/01/28 07:37:50;;;;;;;54.88;14.18;;;3.60;98.80;;;;;;5018197;28;20052;-77
2021/01/28 07:40:53;;;;;;;77.40;14.18;;;3.70;98.80;;;;;;5016992;28;20037;-77
2021/01/28 07:43:31;;;;;;;122.05;16.02;;;3.70;98.80;;;;;;5017201;28;20179;-76
2021/01/28 07:46:18;;;;;;;101.32;15.55;;;3.70;98.70;;;;;;5013497;28;20524;-76
2021/01/28 07:49:03;;;;;;;114.55;15.55;;;3.70;98.70;;;;;;5014900;28;20041;-76
2021/01/28 07:51:29;;;;;;;121.60;18.58;;;3.80;98.70;;;;;;5019264;28;20424;-77
2021/01/28 07:53:55;;;;;;;115.65;17.63;;;3.70;98.80;;;;;;5016845;28;20034;-77
2021/01/28 07:56:36;;;;;;;124.15;19.98;;;3.70;98.80;;;;;;5017713;28;20072;-77
2021/01/28 07:59:16;;;;;;;106.20;17.58;;;3.70;98.80;;;;;;5019416;28;20080;-77
2021/01/28 08:01:45;;;;;;;67.10;15.18;;;3.70;98.90;;;;;;5021134;28;20124;-77
2021/01/28 08:04:28;;;;;;;71.10;16.80;;;3.70;98.90;;;;;;5026518;28;20044;-77
2021/01/28 08:06:57;;;;;;;32.65;12.00;;;3.80;99.00;;;;;;5017513;28;20099;-77
2021/01/28 08:09:22;;;;;;;26.38;12.13;;;3.80;98.90;;;;;;5018705;28;20038;-77
2021/01/28 08:11:50;;;;;;;23.50;10.10;;;3.80;98.90;;;;;;5013850;28;20052;-76
2021/01/28 08:14:20;;;;;;;22.08;10.77;;;3.80;98.80;;;;;;5015995;28;21000;-76
2021/01/28 08:16:50;;;;;;;21.83;9.85;;;3.90;98.80;;;;;;5017027;28;20115;-77
2021/01/28 08:19:25;;;;;;;20.65;9.85;;;3.90;98.80;;;;;;5016036;28;20087;-77
2021/01/28 08:22:11;;;;;;;25.20;11.43;;;3.90;98.60;;;;;;5016956;28;20053;-77
2021/01/28 08:24:39;;;;;;;25.80;11.43;;;3.90;98.50;;;;;;5017519;28;20030;-77
2021/01/28 08:27:20;;;;;;;30.20;12.25;;;3.90;98.50;;;;;;5017657;28;20046;-76
2021/01/28 08:30:14;;;;;;;25.85;11.98;;;4.00;98.50;;;;;;5016672;28;20490;-77
2021/01/28 08:32:41;;;;;;;32.65;11.95;;;3.90;98.40;;;;;;5017270;28;20661;-77
2021/01/28 08:35:13;;;;;;;33.95;12.18;;;4.00;98.40;;;;;;5016146;28;20049;-77
2021/01/28 08:37:39;;;;;;;31.42;12.77;;;4.00;98.40;;;;;;5016845;28;20127;-77
2021/01/28 08:40:15;;;;;;;28.80;11.75;;;4.00;98.40;;;;;;5015642;28;20041;-76
2021/01/28 08:42:41;;;;;;;20.08;9.40;;;4.00;98.40;;;;;;5017225;28;20034;-77
2021/01/28 08:45:26;;;;;;;30.60;12.38;;;4.00;98.30;;;;;;5017260;28;20089;-77
2021/01/28 08:48:02;;;;;;;20.70;10.13;;;4.00;98.20;;;;;;5016492;28;20079;-77
2021/01/28 08:50:29;;;;;;;25.30;11.77;;;4.10;98.20;;;;;;5014800;28;20049;-77
2021/01/28 08:53:04;;;;;;;20.95;10.48;;;4.10;98.00;;;;;;5017985;28;20044;-80
2021/01/28 08:55:35;;;;;;;19.75;11.52;;;4.10;98.00;;;;;;5023673;28;20463;-80
2021/01/28 08:58:31;;;;;;;24.15;11.07;;;4.10;97.90;;;;;;5025397;28;20041;-80
2021/01/28 09:01:00;;;;;;;19.45;10.38;;;4.10;97.90;;;;;;5024935;28;20060;-80
2021/01/28 09:03:39;;;;;;;17.45;9.52;;;4.10;97.80;;;;;;5022412;28;20041;-80
2021/01/28 09:06:05;;;;;;;15.50;9.35;;;4.10;97.80;;;;;;5024115;28;20064;-80
2021/01/28 09:08:38;;;;;;;17.05;10.32;;;4.10;97.70;;;;;;5022858;28;20111;-80
2021/01/28 09:11:25;;;;;;;13.70;8.55;;;4.10;97.60;;;;;;5023851;28;20064;-78
2021/01/28 09:14:16;;;;;;;12.52;8.25;;;4.10;97.50;;;;;;5021888;28;20984;-80
2021/01/28 09:17:05;;;;;;;14.82;8.52;;;4.10;97.40;;;;;;5017817;28;20052;-79
2021/01/28 09:19:38;;;;;;;12.30;8.15;;;4.10;97.30;;;;;;5022773;28;20041;-79
2021/01/28 09:22:21;;;;;;;14.70;8.25;;;4.20;97.20;;;;;;5021850;28;20068;-79
2021/01/28 09:24:48;;;;;;;13.38;7.82;;;4.10;97.20;;;;;;5021832;28;20034;-80
2021/01/28 09:27:22;;;;;;;10.88;7.28;;;4.10;97.10;;;;;;5025151;28;20095;-79
2021/01/28 09:29:51;;;;;;;15.10;7.40;;;4.20;97.10;;;;;;5026959;28;20100;-79
2021/01/28 09:32:17;;;;;;;18.67;9.20;;;4.20;97.10;;;;;;5028397;28;20069;-78
2021/01/28 09:34:42;;;;;;;12.57;8.00;;;4.20;97.00;;;;;;5029072;28;20037;-79
2021/01/28 09:37:14;;;;;;;15.65;9.27;;;4.20;96.90;;;;;;5032181;28;20522;-79
2021/01/28 09:39:48;;;;;;;15.82;9.60;;;4.20;96.90;;;;;;5032437;28;20047;-80
2021/01/28 09:42:33;;;;;;;16.05;8.88;;;4.20;97.00;;;;;;5029668;28;20120;-80
2021/01/28 09:45:05;;;;;;;12.60;8.57;;;4.20;97.00;;;;;;5028057;28;20041;-79
2021/01/28 09:47:31;;;;;;;20.13;9.50;;;4.20;96.90;;;;;;5025333;28;20120;-80
2021/01/28 09:50:03;;;;;;;17.55;11.02;;;4.20;96.90;;;;;;5020847;28;20077;-79
2021/01/28 09:52:31;;;;;;;18.00;9.63;;;4.20;97.00;;;;;;5025226;28;20052;-80
2021/01/28 09:55:06;;;;;;;13.07;9.05;;;4.30;96.80;;;;;;5025447;28;20419;-80
2021/01/28 09:57:32;;;;;;;16.98;10.45;;;4.30;97.10;;;;;;5024094;28;20072;-81
2021/01/28 09:59:58;;;;;;;13.77;7.93;;;4.30;96.70;;;;;;5027063;28;20130;-80
2021/01/28 10:02:29;;;;;;;12.27;8.43;;;4.20;96.60;;;;;;5022779;28;20472;-78
2021/01/28 10:04:55;;;;;;;13.68;8.55;;;4.30;96.40;;;;;;5031735;28;20045;-81
2021/01/28 10:07:21;;;;;;;10.07;6.68;;;4.20;96.30;;;;;;5039294;28;20501;-81
2021/01/28 10:09:46;;;;;;;11.15;7.88;;;4.20;96.10;;;;;;5042737;28;20048;-81
2021/01/28 10:12:13;;;;;;;9.52;6.55;;;4.20;96.10;;;;;;5034752;28;21993;-82
2021/01/28 10:14:39;;;;;;;12.20;7.25;;;4.20;96.10;;;;;;5031257;28;20052;-82
2021/01/28 10:17:05;;;;;;;14.05;7.95;;;4.20;96.00;;;;;;5033812;28;20045;-81
2021/01/28 10:19:31;;;;;;;9.57;7.00;;;4.20;96.10;;;;;;5041167;28;20040;-82
2021/01/28 10:21:57;;;;;;;8.43;6.15;;;4.20;96.10;;;;;;5032676;28;20038;-81
2021/01/28 10:24:22;;;;;;;9.52;6.35;;;4.20;95.80;;;;;;5033488;28;20470;-82
2021/01/28 10:26:48;;;;;;;8.27;6.30;;;4.20;95.60;;;;;;5030134;28;20049;-81
2021/01/28 10:29:14;;;;;;;8.55;5.22;;;4.20;95.80;;;;;;5037615;28;20045;-82
2021/01/28 10:31:40;;;;;;;11.07;6.15;;;4.20;95.60;;;;;;5041192;28;20037;-82
2021/01/28 10:34:06;;;;;;;12.45;7.47;;;4.20;95.60;;;;;;5036165;28;20037;-82
2021/01/28 10:36:32;;;;;;;15.98;7.38;;;4.10;95.90;;;;;;5034857;28;20045;-82
2021/01/28 10:38:57;;;;;;;9.32;5.40;;;4.10;95.80;;;;;;5030257;28;20423;-83
2021/01/28 10:41:23;;;;;;;8.85;6.18;;;4.10;95.50;;;;;;5029779;28;20494;-83
2021/01/28 10:43:49;;;;;;;10.75;7.20;;;4.10;95.40;;;;;;5026993;28;20033;-82
2021/01/28 10:46:14;;;;;;;13.00;8.85;;;4.10;95.40;;;;;;5039197;28;20034;-85
2021/01/28 10:48:40;;;;;;;10.85;7.32;;;4.10;95.70;;;;;;5044788;28;20033;-83
2021/01/28 10:51:07;;;;;;;9.30;6.60;;;4.00;95.50;;;;;;5029841;28;20037;-83
2021/01/28 10:53:35;;;;;;;8.95;6.15;;;4.00;95.90;;;;;;5029145;28;21674;-85
2021/01/28 10:56:01;;;;;;;7.88;6.03;;;4.00;95.60;;;;;;5032647;28;20038;-84
2021/01/28 10:58:26;;;;;;;9.30;6.43;;;3.90;95.40;;;;;;5029550;28;20403;-83
2021/01/28 11:00:54;;;;;;;13.85;7.25;;;4.00;95.50;;;;;;5029017;28;20521;-85
2021/01/28 11:03:20;;;;;;;8.98;6.65;;;3.90;95.50;;;;;;5032310;28;20053;-84
2021/01/28 11:05:46;;;;;;;11.68;7.40;;;3.90;95.40;;;;;;5030587;28;20476;-84
2021/01/28 11:08:11;;;;;;;12.05;6.90;;;3.90;95.50;;;;;;5032288;28;20048;-85
2021/01/28 11:10:37;;;;;;;12.68;6.78;;;3.80;95.50;;;;;;5031456;28;21457;-84
2021/01/28 11:13:04;;;;;;;10.48;7.38;;;3.80;95.30;;;;;;5031592;28;20048;-84
2021/01/28 11:15:33;;;;;;;14.88;7.03;;;3.70;95.50;;;;;;5026299;28;20034;-86
2021/01/28 11:18:00;;;;;;;12.98;6.70;;;3.70;95.50;;;;;;5035406;28;20044;-81
2021/01/28 11:20:25;;;;;;;8.13;6.40;;;3.70;95.40;;;;;;5035370;28;20053;-84
2021/01/28 11:22:51;;;;;;;8.27;4.53;;;3.60;95.60;;;;;;5032246;28;20052;-86
2021/01/28 11:25:20;;;;;;;11.63;4.15;;;3.50;95.30;;;;;;5034578;28;20472;-86
2021/01/28 11:27:48;;;;;;;9.50;4.75;;;3.40;94.80;;;;;;5033722;28;20064;-87
2021/01/28 11:30:16;;;;;;;4.47;2.15;;;3.30;95.10;;;;;;5032267;28;20045;-88
2021/01/28 11:32:42;;;;;;;6.72;2.00;;;3.30;94.80;;;;;;5032860;28;20751;-88
2021/01/28 11:35:08;;;;;;;3.03;1.65;;;3.20;94.90;;;;;;5035664;28;20096;-87
2021/01/28 11:37:35;;;;;;;5.10;1.90;;;3.10;95.00;;;;;;5032983;28;20042;-87
2021/01/28 11:40:01;;;;;;;4.40;2.00;;;3.00;95.20;;;;;;5034169;28;20101;-86
2021/01/28 11:42:26;;;;;;;4.13;2.08;;;2.90;95.40;;;;;;5036087;28;20085;-86
2021/01/28 11:44:52;;;;;;;4.95;2.38;;;2.90;95.00;;;;;;5036600;28;20522;-85
2021/01/28 11:47:18;;;;;;;6.25;1.90;;;2.80;95.20;;;;;;5031309;28;20507;-86
2021/01/28 11:49:43;;;;;;;3.65;1.88;;;2.70;95.60;;;;;;5028695;28;20113;-89
2021/01/28 11:52:09;;;;;;;3.67;1.95;;;2.70;95.40;;;;;;5035191;28;20107;-88
2021/01/28 11:54:35;;;;;;;5.40;2.75;;;2.60;95.30;;;;;;5029168;28;20029;-85
2021/01/28 11:57:01;;;;;;;4.47;2.60;;;2.60;95.40;;;;;;5028865;28;20045;-86
2021/01/28 11:59:27;;;;;;;4.30;2.85;;;2.60;95.50;;;;;;5028493;28;20038;-86
2021/01/28 12:01:52;;;;;;;6.35;2.85;;;2.50;95.60;;;;;;5029167;28;20049;-86
2021/01/28 12:04:18;;;;;;;4.88;2.40;;;2.60;95.80;;;;;;5029171;28;20367;-87
2021/01/28 12:06:44;;;;;;;8.32;3.85;;;2.50;95.60;;;;;;5029817;28;20064;-87
2021/01/28 12:09:11;;;;;;;6.78;3.13;;;2.60;95.90;;;;;;5027887;28;20037;-87
2021/01/28 12:11:36;;;;;;;6.70;4.18;;;2.50;96.00;;;;;;5024232;28;20434;-87
2021/01/28 12:14:02;;;;;;;8.57;3.45;;;2.50;96.10;;;;;;5028215;28;20038;-85
2021/01/28 12:16:28;;;;;;;5.82;3.65;;;2.50;96.10;;;;;;5031714;28;20041;-86
2021/01/28 12:18:54;;;;;;;9.55;3.67;;;2.50;96.00;;;;;;5026943;28;20068;-85
2021/01/28 12:21:19;;;;;;;8.35;4.10;;;2.50;96.20;;;;;;5030517;28;20033;-85
2021/01/28 12:23:45;;;;;;;5.55;3.15;;;2.60;96.20;;;;;;5029093;28;20052;-87
2021/01/28 12:26:12;;;;;;;6.35;3.38;;;2.50;96.20;;;;;;5028202;28;20045;-84
2021/01/28 12:28:38;;;;;;;6.78;3.65;;;2.50;96.20;;;;;;5026208;28;20052;-87
2021/01/28 12:31:04;;;;;;;6.55;4.10;;;2.50;96.50;;;;;;5026276;28;20038;-84
2021/01/28 12:33:30;;;;;;;7.28;4.90;;;2.60;96.40;;;;;;5026591;28;20081;-85
2021/01/28 12:35:56;;;;;;;3.45;2.35;;;2.60;96.40;;;;;;5029987;28;20037;-88
2021/01/28 12:38:22;;;;;;;8.43;4.50;;;2.60;96.40;;;;;;5027999;28;20103;-83
2021/01/28 12:40:47;;;;;;;7.65;3.03;;;2.70;96.40;;;;;;5026966;28;20037;-90
2021/01/28 12:43:13;;;;;;;5.35;3.50;;;2.70;96.10;;;;;;5024790;28;20511;-85
2021/01/28 12:45:39;;;;;;;9.30;4.72;;;2.70;96.30;;;;;;5027701;28;20040;-84
2021/01/28 12:48:05;;;;;;;7.18;3.45;;;2.70;96.50;;;;;;5026578;28;20034;-83
2021/01/28 12:50:30;;;;;;;5.13;2.78;;;2.70;96.30;;;;;;5029468;28;20045;-87
2021/01/28 12:52:57;;;;;;;8.63;3.83;;;2.70;96.30;;;;;;5030101;28;20040;-86
2021/01/28 12:55:23;;;;;;;8.07;2.75;;;2.80;96.30;;;;;;5027029;28;20044;-86
2021/01/28 12:57:48;;;;;;;6.18;3.90;;;2.80;96.30;;;;;;5026992;28;20503;-83
2021/01/28 13:00:17;;;;;;;6.22;3.47;;;2.80;96.30;;;;;;5029299;28;20044;-86
2021/01/28 13:02:42;;;;;;;4.10;2.78;;;2.80;96.20;;;;;;5027098;28;20049;-86
2021/01/28 13:05:09;;;;;;;5.65;3.67;;;2.80;95.90;;;;;;5028697;28;20040;-87